createdAt,value
2022-12-03T00:02:16.902Z,10.55
2022-12-03T00:04:44.080Z,10.02
2022-12-03T00:07:11.161Z,11.30
2022-12-03T00:09:38.244Z,11.88
2022-12-03T00:12:05.618Z,9.38
2022-12-03T00:14:32.722Z,11.23
2022-12-03T00:17:00.279Z,10.52
2022-12-03T00:19:27.385Z,10.73
2022-12-03T00:21:54.532Z,10.60
2022-12-03T00:24:21.617Z,11.20
2022-12-03T00:26:48.749Z,11.18
2022-12-03T00:29:15.894Z,11.55
2022-12-03T00:31:45.388Z,11.20
2022-12-03T00:34:12.575Z,14.63
2022-12-03T00:36:41.158Z,16.08
2022-12-03T00:39:08.299Z,11.60
2022-12-03T00:41:35.450Z,13.07
2022-12-03T00:44:02.506Z,13.27
2022-12-03T00:46:29.700Z,10.18
2022-12-03T00:48:56.913Z,14.35
2022-12-03T00:51:24.017Z,9.32
2022-12-03T00:53:51.106Z,9.93
2022-12-03T00:56:18.207Z,10.05
2022-12-03T00:58:45.336Z,9.75
2022-12-03T01:01:12.445Z,12.52
2022-12-03T01:03:39.571Z,10.00
2022-12-03T01:06:06.692Z,11.52
2022-12-03T01:08:33.899Z,12.38
2022-12-03T01:11:01.113Z,11.30
2022-12-03T01:13:28.285Z,13.13
2022-12-03T01:15:55.482Z,15.63
2022-12-03T01:18:22.619Z,12.27
2022-12-03T01:20:49.728Z,10.85
2022-12-03T01:23:16.870Z,10.10
2022-12-03T01:25:43.965Z,12.25
2022-12-03T01:28:11.114Z,12.43
2022-12-03T01:30:58.236Z,12.45
2022-12-03T01:33:25.404Z,11.23
2022-12-03T01:35:52.535Z,10.63
2022-12-03T01:38:19.759Z,12.50
2022-12-03T01:40:47.081Z,10.88
2022-12-03T01:43:14.212Z,13.13
2022-12-03T01:45:41.493Z,14.32
2022-12-03T01:48:13.534Z,13.45
2022-12-03T01:50:40.705Z,13.23
2022-12-03T01:53:11.857Z,12.40
2022-12-03T01:55:38.997Z,13.30
2022-12-03T01:58:06.290Z,13.00
2022-12-03T02:00:33.424Z,11.93
2022-12-03T02:03:02.559Z,14.85
2022-12-03T02:05:33.812Z,11.95
2022-12-03T02:08:01.141Z,12.82
2022-12-03T02:10:33.781Z,13.15
2022-12-03T02:13:10.086Z,13.93
2022-12-03T02:15:40.000Z,12.77
2022-12-03T02:18:08.906Z,13.68
2022-12-03T02:20:44.945Z,13.50
2022-12-03T02:23:43.231Z,14.10
2022-12-03T02:26:10.541Z,14.10
2022-12-03T02:28:38.445Z,15.98
2022-12-03T02:31:06.426Z,15.50
2022-12-03T02:33:33.856Z,16.42
2022-12-03T02:36:03.832Z,18.05
2022-12-03T02:38:33.093Z,13.75
2022-12-03T02:41:04.732Z,17.15
2022-12-03T02:43:32.130Z,14.18
2022-12-03T02:46:01.085Z,15.93
2022-12-03T02:48:39.981Z,14.60
2022-12-03T02:51:10.326Z,17.27
2022-12-03T02:53:44.413Z,14.63
2022-12-03T02:56:15.296Z,14.95
2022-12-03T02:58:45.044Z,14.05
2022-12-03T03:01:12.896Z,16.50
2022-12-03T03:03:40.406Z,15.32
2022-12-03T03:06:09.076Z,15.65
2022-12-03T03:08:38.459Z,14.38
2022-12-03T03:11:05.919Z,15.07
2022-12-03T03:13:35.374Z,14.90
2022-12-03T03:16:05.244Z,14.75
2022-12-03T03:18:34.058Z,16.23
2022-12-03T03:21:01.230Z,15.55
2022-12-03T03:23:28.392Z,14.02
2022-12-03T03:26:07.701Z,15.60
2022-12-03T03:28:38.109Z,15.13
2022-12-03T03:31:08.023Z,15.35
2022-12-03T03:33:36.582Z,14.70
2022-12-03T03:36:03.998Z,16.10
2022-12-03T03:38:31.906Z,15.95
2022-12-03T03:41:02.002Z,19.75
2022-12-03T03:43:30.843Z,13.60
2022-12-03T03:45:58.070Z,17.70
2022-12-03T03:48:25.286Z,16.52
2022-12-03T03:50:52.837Z,16.52
2022-12-03T03:53:21.773Z,17.83
2022-12-03T03:55:49.872Z,15.05
2022-12-03T03:58:17.227Z,18.35
2022-12-03T04:00:45.473Z,17.60
2022-12-03T04:03:13.420Z,17.55
2022-12-03T04:05:40.885Z,16.48
2022-12-03T04:08:08.146Z,18.05
2022-12-03T04:10:53.526Z,16.60
2022-12-03T04:13:20.636Z,20.92
2022-12-03T04:15:48.243Z,16.67
2022-12-03T04:18:34.152Z,16.65
2022-12-03T04:21:19.585Z,19.50
2022-12-03T04:23:46.717Z,14.43
2022-12-03T04:26:32.794Z,18.63
2022-12-03T04:28:59.934Z,22.05
2022-12-03T04:31:45.732Z,17.45
2022-12-03T04:34:31.462Z,17.52
2022-12-03T04:36:58.776Z,15.43
2022-12-03T04:39:25.906Z,15.98
2022-12-03T04:41:53.055Z,18.80
2022-12-03T04:44:38.315Z,18.42
2022-12-03T04:47:15.161Z,16.25
2022-12-03T04:49:44.784Z,17.45
2022-12-03T04:52:14.107Z,16.23
2022-12-03T04:54:41.996Z,18.08
2022-12-03T04:57:10.372Z,20.23
2022-12-03T04:59:38.319Z,16.58
2022-12-03T05:02:06.648Z,18.90
2022-12-03T05:04:34.306Z,17.00
2022-12-03T05:07:01.945Z,19.63
2022-12-03T05:09:29.127Z,19.15
2022-12-03T05:11:56.294Z,19.33
2022-12-03T05:14:23.443Z,17.15
2022-12-03T05:16:50.626Z,20.70
2022-12-03T05:19:17.813Z,18.55
2022-12-03T05:21:44.927Z,18.20
2022-12-03T05:24:12.050Z,18.23
2022-12-03T05:26:39.141Z,19.02
2022-12-03T05:29:06.224Z,18.45
2022-12-03T05:31:33.348Z,18.42
2022-12-03T05:34:00.501Z,17.77
2022-12-03T05:36:27.763Z,20.00
2022-12-03T05:38:54.836Z,19.63
2022-12-03T05:41:40.292Z,21.73
2022-12-03T05:44:07.399Z,19.45
2022-12-03T05:46:34.652Z,20.02
2022-12-03T05:49:01.846Z,18.80
2022-12-03T05:51:28.930Z,20.63
2022-12-03T05:53:57.526Z,20.50
2022-12-03T05:56:24.701Z,18.20
2022-12-03T05:58:51.807Z,21.02
2022-12-03T06:01:18.914Z,19.05
2022-12-03T06:03:46.147Z,21.20
2022-12-03T06:06:13.345Z,19.98
2022-12-03T06:08:40.446Z,22.30
2022-12-03T06:11:07.513Z,22.27
2022-12-03T06:13:34.649Z,21.70
2022-12-03T06:16:01.808Z,20.00
2022-12-03T06:18:29.605Z,20.98
2022-12-03T06:20:56.685Z,23.58
2022-12-03T06:23:23.795Z,22.02
2022-12-03T06:25:50.941Z,22.10
2022-12-03T06:28:18.026Z,19.90
2022-12-03T06:30:45.145Z,23.88
2022-12-03T06:33:12.344Z,20.30
2022-12-03T06:35:39.511Z,20.35
2022-12-03T06:38:06.668Z,20.20
2022-12-03T06:40:33.769Z,20.90
2022-12-03T06:43:00.869Z,20.80
2022-12-03T06:45:27.950Z,21.25
2022-12-03T06:47:55.087Z,23.38
2022-12-03T06:50:22.248Z,19.88
2022-12-03T06:52:49.333Z,21.33
2022-12-03T06:55:16.600Z,20.42
2022-12-03T06:57:43.684Z,19.88
2022-12-03T07:00:11.436Z,21.52
2022-12-03T07:02:38.574Z,20.75
2022-12-03T07:05:06.329Z,20.05
2022-12-03T07:07:33.541Z,20.48
2022-12-03T07:10:00.765Z,18.98
2022-12-03T07:12:27.862Z,19.85
2022-12-03T07:14:55.283Z,20.05
2022-12-03T07:17:22.584Z,20.33
2022-12-03T07:19:49.688Z,19.75
2022-12-03T07:22:16.868Z,18.55
2022-12-03T07:24:43.979Z,21.17
2022-12-03T07:27:11.077Z,21.27
2022-12-03T07:29:38.217Z,20.65
2022-12-03T07:32:05.651Z,19.65
2022-12-03T07:34:32.739Z,21.08
2022-12-03T07:36:59.828Z,19.52
2022-12-03T07:39:27.003Z,20.42
2022-12-03T07:41:54.085Z,18.83
2022-12-03T07:44:21.189Z,20.10
2022-12-03T07:46:48.527Z,20.80
2022-12-03T07:49:16.233Z,17.05
2022-12-03T07:51:45.406Z,18.17
2022-12-03T07:54:12.533Z,19.65
2022-12-03T07:56:39.697Z,19.48
2022-12-03T07:59:06.825Z,23.15
2022-12-03T08:01:34.025Z,35.38
2022-12-03T08:04:01.165Z,37.88
2022-12-03T08:06:28.255Z,25.45
2022-12-03T08:08:55.385Z,17.70
2022-12-03T08:11:22.692Z,18.20
2022-12-03T08:13:49.767Z,17.17
2022-12-03T08:16:20.337Z,17.95
2022-12-03T08:18:49.308Z,17.90
2022-12-03T08:21:19.626Z,20.73
2022-12-03T08:23:47.261Z,21.48
2022-12-03T08:26:24.360Z,20.15
2022-12-03T08:28:53.035Z,16.65
2022-12-03T08:31:20.563Z,17.20
2022-12-03T08:33:50.505Z,14.98
2022-12-03T08:36:25.241Z,19.85
2022-12-03T08:38:55.891Z,17.52
2022-12-03T08:41:42.275Z,17.83
2022-12-03T08:44:25.852Z,18.92
2022-12-03T08:47:17.538Z,16.17
2022-12-03T08:49:51.477Z,17.55
2022-12-03T08:52:23.213Z,18.75
2022-12-03T08:54:56.197Z,17.88
2022-12-03T08:57:32.794Z,17.73
2022-12-03T09:00:24.525Z,20.90
2022-12-03T09:02:54.377Z,18.20
2022-12-03T09:05:25.739Z,20.52
2022-12-03T09:07:52.891Z,18.52
2022-12-03T09:10:20.072Z,23.67
2022-12-03T09:12:47.395Z,18.42
2022-12-03T09:15:14.612Z,22.10
2022-12-03T09:17:41.690Z,20.35
2022-12-03T09:20:09.259Z,21.45
2022-12-03T09:22:36.561Z,20.65
2022-12-03T09:25:04.024Z,23.30
2022-12-03T09:27:31.103Z,23.98
2022-12-03T09:29:58.469Z,18.30
2022-12-03T09:32:25.913Z,19.60
2022-12-03T09:34:53.645Z,20.48
2022-12-03T09:37:22.159Z,17.98
2022-12-03T09:39:49.418Z,17.08
2022-12-03T09:42:17.074Z,19.77
2022-12-03T09:44:44.382Z,17.10
2022-12-03T09:47:11.662Z,18.70
2022-12-03T09:49:41.318Z,15.30
2022-12-03T09:52:11.912Z,15.48
2022-12-03T09:54:42.811Z,19.67
2022-12-03T09:59:40.537Z,18.17
2022-12-03T10:02:23.275Z,19.77
2022-12-03T10:04:50.995Z,16.90
2022-12-03T10:07:18.362Z,17.48
2022-12-03T10:09:45.509Z,18.25
2022-12-03T10:12:14.286Z,16.67
2022-12-03T10:14:42.802Z,17.60
2022-12-03T10:17:11.719Z,15.75
2022-12-03T10:19:39.644Z,14.77
2022-12-03T10:22:06.781Z,16.83
2022-12-03T10:24:35.788Z,15.65
2022-12-03T10:27:19.520Z,14.82
2022-12-03T10:29:56.312Z,15.82
2022-12-03T10:32:38.961Z,17.20
2022-12-03T10:35:10.737Z,15.73
2022-12-03T10:37:54.805Z,17.08
2022-12-03T10:43:13.501Z,15.63
2022-12-03T10:45:41.732Z,14.43
2022-12-03T10:48:27.367Z,12.75
2022-12-03T10:51:03.632Z,16.05
2022-12-03T10:53:33.175Z,17.13
2022-12-03T10:56:04.057Z,14.95
2022-12-03T10:58:37.077Z,14.10
2022-12-03T11:01:14.929Z,15.38
2022-12-03T11:03:42.250Z,17.25
2022-12-03T11:06:14.866Z,18.02
2022-12-03T11:08:45.421Z,17.45
2022-12-03T11:11:29.968Z,18.05
2022-12-03T11:13:59.268Z,18.40
2022-12-03T11:16:41.305Z,19.52
2022-12-03T11:19:40.203Z,17.38
2022-12-03T11:22:09.589Z,24.02
2022-12-03T11:24:38.926Z,19.45
2022-12-03T11:27:16.831Z,27.05
2022-12-03T11:29:57.564Z,21.58
2022-12-03T11:32:43.017Z,16.33
2022-12-03T11:35:27.738Z,16.00
2022-12-03T11:37:54.869Z,15.73
2022-12-03T11:40:21.926Z,15.15
2022-12-03T11:42:49.283Z,15.02
2022-12-03T11:45:29.144Z,15.20
2022-12-03T11:47:59.053Z,20.45
2022-12-03T11:50:40.123Z,17.33
2022-12-03T11:53:22.005Z,19.65
2022-12-03T11:56:06.188Z,13.25
2022-12-03T11:58:35.718Z,13.48
2022-12-03T12:01:04.945Z,13.85
2022-12-03T12:03:35.149Z,14.52
2022-12-03T12:06:03.169Z,16.60
2022-12-03T12:08:31.363Z,13.90
2022-12-03T12:10:59.230Z,12.20
2022-12-03T12:13:32.400Z,13.77
2022-12-03T12:16:06.925Z,13.60
2022-12-03T12:18:45.316Z,16.58
2022-12-03T12:21:44.267Z,14.50
2022-12-03T12:24:33.007Z,14.60
2022-12-03T12:27:11.051Z,17.42
2022-12-03T12:29:40.088Z,18.05
2022-12-03T12:32:10.625Z,15.73
2022-12-03T12:34:48.536Z,13.40
2022-12-03T12:37:31.189Z,13.77
2022-12-03T12:39:58.568Z,15.68
2022-12-03T12:42:37.488Z,14.77
2022-12-03T12:45:07.531Z,13.23
2022-12-03T12:48:10.239Z,10.52
2022-12-03T12:50:38.661Z,14.43
2022-12-03T12:53:27.035Z,12.32
2022-12-03T12:55:57.153Z,11.65
2022-12-03T12:58:25.984Z,13.90
2022-12-03T13:00:58.812Z,12.90
2022-12-03T13:03:29.188Z,16.23
2022-12-03T13:05:57.599Z,13.63
2022-12-03T13:08:30.127Z,10.13
2022-12-03T13:10:59.670Z,10.55
2022-12-03T13:13:43.679Z,12.57
2022-12-03T13:16:18.204Z,12.23
2022-12-03T13:18:53.054Z,13.95
2022-12-03T13:21:40.649Z,10.32
2022-12-03T13:24:29.462Z,12.00
2022-12-03T13:26:57.641Z,13.15
2022-12-03T13:29:26.665Z,12.18
2022-12-03T13:31:59.824Z,12.60
2022-12-03T13:34:32.289Z,11.48
2022-12-03T13:37:01.351Z,10.02
2022-12-03T13:39:40.605Z,13.88
2022-12-03T13:42:40.810Z,12.52
2022-12-03T13:45:13.919Z,12.40
2022-12-03T13:47:40.949Z,12.27
2022-12-03T13:50:26.887Z,15.00
2022-12-03T13:52:55.029Z,13.93
2022-12-03T13:55:26.350Z,11.75
2022-12-03T13:57:53.899Z,12.10
2022-12-03T14:00:21.369Z,16.20
2022-12-03T14:02:48.681Z,14.85
2022-12-03T14:05:15.910Z,14.18
2022-12-03T14:07:43.126Z,13.48
2022-12-03T14:10:11.870Z,13.68
2022-12-03T14:12:38.981Z,12.85
2022-12-03T14:15:06.933Z,15.50
2022-12-03T14:17:34.072Z,15.57
2022-12-03T14:20:01.671Z,14.27
2022-12-03T14:22:29.488Z,16.42
2022-12-03T14:24:57.593Z,16.17
2022-12-03T14:27:24.859Z,15.85
2022-12-03T14:29:52.529Z,23.20
2022-12-03T14:32:19.993Z,18.10
2022-12-03T14:34:48.077Z,16.92
2022-12-03T14:37:15.361Z,16.77
2022-12-03T14:39:42.548Z,20.80
2022-12-03T14:42:16.801Z,23.27
2022-12-03T14:44:47.589Z,39.25
2022-12-03T14:47:16.367Z,53.92
2022-12-03T14:49:43.792Z,55.08
2022-12-03T14:52:12.398Z,56.03
2022-12-03T14:54:42.292Z,42.30
2022-12-03T14:57:12.332Z,44.55
2022-12-03T14:59:43.329Z,25.95
2022-12-03T15:02:11.680Z,27.85
2022-12-03T15:04:39.707Z,23.83
2022-12-03T15:07:07.054Z,25.02
2022-12-03T15:09:34.290Z,27.42
2022-12-03T15:12:03.988Z,24.40
2022-12-03T15:14:31.148Z,23.13
2022-12-03T15:16:58.463Z,26.92
2022-12-03T15:19:25.668Z,22.40
2022-12-03T15:21:52.745Z,21.20
2022-12-03T15:24:19.881Z,22.48
2022-12-03T15:26:47.013Z,21.13
2022-12-03T15:29:14.168Z,22.25
2022-12-03T15:31:41.375Z,23.00
2022-12-03T15:34:08.908Z,22.52
2022-12-03T15:36:36.092Z,22.55
2022-12-03T15:39:03.829Z,20.60
2022-12-03T15:41:31.117Z,20.20
2022-12-03T15:44:01.490Z,22.10
2022-12-03T15:46:28.763Z,22.33
2022-12-03T15:48:55.889Z,20.48
2022-12-03T15:51:24.089Z,22.30
2022-12-03T15:53:51.786Z,26.88
2022-12-03T15:56:19.172Z,23.77
2022-12-03T15:58:46.369Z,22.70
2022-12-03T16:01:13.874Z,22.02
2022-12-03T16:03:41.690Z,20.55
2022-12-03T16:06:08.970Z,22.63
2022-12-03T16:08:36.103Z,20.83
2022-12-03T16:11:04.209Z,16.02
2022-12-03T16:13:31.529Z,21.02
2022-12-03T16:15:58.683Z,18.92
2022-12-03T16:18:25.776Z,20.08
2022-12-03T16:20:52.912Z,17.75
2022-12-03T16:23:19.980Z,20.77
2022-12-03T16:25:47.150Z,23.02
2022-12-03T16:28:14.295Z,21.05
2022-12-03T16:30:41.777Z,19.00
2022-12-03T16:33:08.905Z,23.40
2022-12-03T16:35:35.972Z,20.90
2022-12-03T16:38:03.120Z,25.88
2022-12-03T16:40:30.295Z,21.02
2022-12-03T16:42:57.443Z,28.65
2022-12-03T16:45:33.170Z,28.67
2022-12-03T16:48:01.647Z,24.40
2022-12-03T16:50:30.313Z,21.45
2022-12-03T16:52:58.190Z,21.83
2022-12-03T16:55:25.546Z,21.95
2022-12-03T16:57:52.665Z,19.70
2022-12-03T17:00:21.830Z,27.52
2022-12-03T17:02:49.035Z,21.38
2022-12-03T17:05:16.319Z,24.02
2022-12-03T17:07:43.482Z,26.30
2022-12-03T17:10:11.309Z,28.02
2022-12-03T17:13:07.577Z,31.65
2022-12-03T17:15:25.539Z,35.33
2022-12-03T17:17:53.533Z,25.85
2022-12-03T17:20:20.615Z,30.15
2022-12-03T17:22:47.729Z,30.10
2022-12-03T17:25:14.916Z,26.40
2022-12-03T17:27:45.380Z,24.50
2022-12-03T17:30:13.358Z,34.70
2022-12-03T17:32:40.528Z,31.80
2022-12-03T17:35:08.529Z,29.80
2022-12-03T17:37:36.279Z,31.65
2022-12-03T17:40:08.191Z,30.02
2022-12-03T17:42:35.594Z,35.63
2022-12-03T17:45:02.815Z,40.72
2022-12-03T17:47:29.915Z,33.80
2022-12-03T17:49:57.480Z,28.42
2022-12-03T17:52:24.795Z,29.60
2022-12-03T17:57:39.062Z,33.72
2022-12-03T18:00:06.943Z,33.08
2022-12-03T18:02:39.489Z,33.65
2022-12-03T18:05:06.862Z,34.97
2022-12-03T18:07:34.064Z,36.90
2022-12-03T18:10:01.250Z,34.13
2022-12-03T18:12:28.380Z,36.15
2022-12-03T18:14:55.460Z,45.47
2022-12-03T18:17:23.916Z,40.13
2022-12-03T18:19:51.022Z,38.92
2022-12-03T18:22:18.440Z,40.33
2022-12-03T18:24:47.612Z,38.47
2022-12-03T18:27:17.463Z,44.75
2022-12-03T18:29:44.569Z,37.33
2022-12-03T18:32:27.723Z,44.00
2022-12-03T18:37:28.573Z,53.85
2022-12-03T18:39:57.154Z,31.15
2022-12-03T18:42:24.930Z,49.05
2022-12-03T18:44:54.908Z,49.20
2022-12-03T18:47:25.210Z,53.00
2022-12-03T18:49:52.602Z,40.28
2022-12-03T18:52:21.942Z,43.83
2022-12-03T18:54:49.305Z,55.13
2022-12-03T18:57:17.824Z,119.25
2022-12-03T18:59:45.078Z,40.38
2022-12-03T19:05:09.193Z,44.53
2022-12-03T19:07:36.808Z,56.22
2022-12-03T19:10:04.891Z,41.40
2022-12-03T19:12:32.685Z,39.55
2022-12-03T19:14:59.944Z,41.42
2022-12-03T19:17:27.524Z,51.58
2022-12-03T19:19:55.319Z,42.55
2022-12-03T19:22:23.021Z,45.85
2022-12-03T19:24:50.640Z,47.33
2022-12-03T19:27:18.261Z,47.20
2022-12-03T19:29:48.528Z,48.22
2022-12-03T19:32:15.728Z,43.22
2022-12-03T19:34:42.885Z,60.67
2022-12-03T19:37:09.968Z,49.50
2022-12-03T19:39:37.118Z,55.42
2022-12-03T19:42:04.329Z,68.32
2022-12-03T19:44:31.524Z,72.63
2022-12-03T19:46:58.645Z,53.20
2022-12-03T19:49:25.795Z,44.63
2022-12-03T19:51:53.145Z,42.63
2022-12-03T19:54:20.296Z,60.67
2022-12-03T19:56:47.378Z,65.03
2022-12-03T19:59:14.655Z,88.40
2022-12-03T20:01:43.068Z,74.32
2022-12-03T20:04:11.537Z,48.00
2022-12-03T20:06:39.104Z,63.63
2022-12-03T20:09:13.072Z,73.85
2022-12-03T20:11:41.315Z,41.42
2022-12-03T20:14:12.556Z,49.97
2022-12-03T20:16:39.874Z,41.05
2022-12-03T20:19:09.929Z,130.13
2022-12-03T20:21:38.728Z,75.68
2022-12-03T20:24:07.839Z,113.85
2022-12-03T20:26:34.954Z,129.63
2022-12-03T20:29:02.423Z,104.97
2022-12-03T20:31:31.465Z,80.78
2022-12-03T20:34:02.097Z,79.05
2022-12-03T20:36:31.013Z,202.57
2022-12-03T20:39:05.501Z,76.40
2022-12-03T20:41:35.868Z,74.45
2022-12-03T20:44:03.703Z,62.40
2022-12-03T20:46:31.361Z,65.45
2022-12-03T20:48:59.059Z,65.57
2022-12-03T20:51:30.727Z,60.58
2022-12-03T20:53:59.860Z,61.58
2022-12-03T20:56:31.206Z,59.88
2022-12-03T20:59:08.112Z,47.47
2022-12-03T21:01:36.186Z,95.25
2022-12-03T21:04:04.834Z,56.17
2022-12-03T21:06:34.017Z,46.70
2022-12-03T21:09:02.468Z,48.50
2022-12-03T21:11:31.651Z,44.05
2022-12-03T21:14:00.189Z,35.50
2022-12-03T21:17:05.664Z,46.63
2022-12-03T21:19:20.267Z,42.53
2022-12-03T21:21:47.409Z,50.53
2022-12-03T21:24:14.905Z,49.30
2022-12-03T21:26:42.050Z,33.00
2022-12-03T21:29:09.201Z,38.13
2022-12-03T21:31:38.245Z,36.28
2022-12-03T21:34:05.497Z,40.95
2022-12-03T21:36:32.677Z,46.30
2022-12-03T21:38:59.910Z,30.50
2022-12-03T21:41:27.225Z,43.70
2022-12-03T21:43:54.375Z,47.92
2022-12-03T21:47:11.764Z,46.88
2022-12-03T21:49:08.812Z,39.55
2022-12-03T21:51:35.937Z,42.88
2022-12-03T21:54:03.237Z,38.33
2022-12-03T21:56:31.777Z,50.60
2022-12-03T21:58:58.970Z,56.97
2022-12-03T22:01:26.430Z,55.85
2022-12-03T22:03:53.597Z,43.17
2022-12-03T22:06:20.800Z,47.92
2022-12-03T22:08:48.559Z,38.83
2022-12-03T22:11:24.199Z,50.88
2022-12-03T22:13:51.538Z,56.47
2022-12-03T22:16:21.012Z,72.43
2022-12-03T22:18:48.814Z,57.70
2022-12-03T22:21:18.707Z,46.92
2022-12-03T22:23:46.413Z,58.42
2022-12-03T22:26:18.212Z,67.38
2022-12-03T22:28:47.080Z,50.85
2022-12-03T22:31:15.199Z,69.80
2022-12-03T22:33:43.429Z,49.80
2022-12-03T22:36:19.740Z,76.70
2022-12-03T22:38:48.989Z,61.55
2022-12-03T22:41:17.257Z,62.20
2022-12-03T22:43:44.939Z,59.15
2022-12-03T22:46:12.853Z,46.42
2022-12-03T22:48:42.270Z,54.58
2022-12-03T22:51:17.601Z,39.25
2022-12-03T22:53:44.872Z,42.90
2022-12-03T22:56:12.172Z,39.72
2022-12-03T22:58:40.259Z,44.40
2022-12-03T23:01:08.266Z,34.83
2022-12-03T23:03:36.871Z,35.20
2022-12-03T23:06:11.427Z,40.60
2022-12-03T23:08:38.734Z,48.72
2022-12-03T23:11:06.115Z,34.65
2022-12-03T23:13:33.250Z,32.08
2022-12-03T23:16:00.403Z,29.70
2022-12-03T23:18:27.621Z,27.98
2022-12-03T23:20:56.562Z,37.45
2022-12-03T23:23:26.081Z,29.38
2022-12-03T23:26:08.688Z,28.90
2022-12-03T23:28:37.513Z,30.42
2022-12-03T23:31:06.009Z,31.20
2022-12-03T23:33:38.218Z,24.10
2022-12-03T23:36:06.584Z,23.02
2022-12-03T23:38:33.733Z,25.15
2022-12-03T23:41:05.840Z,25.25
2022-12-03T23:43:32.957Z,27.15
2022-12-03T23:46:14.735Z,25.30
2022-12-03T23:48:42.588Z,29.90
2022-12-03T23:51:14.155Z,25.00
2022-12-03T23:53:41.949Z,25.98
2022-12-03T23:56:15.561Z,28.35
2022-12-03T23:58:43.511Z,23.55
